Time;durP1;ratioP1;P1;durP2;ratioP2;P2;SDS_P1;SDS_P2;PMS_P1;PMS_P2;Temp;Humidity;BMP_temperature;BMP_pressure;BME280_temperature;BME280_humidity;BME280_pressure;Samples;Min_cycle;Max_cycle;Signal;HPM_P1;HPM_P2
2022/10/19 00:01:06;;;;;;;3.78;3.10;;;24.00;99.90;;;;;;5020954;28;20790;-89
2022/10/19 00:03:35;;;;;;;3.20;2.67;;;24.20;99.90;;;;;;5017426;28;20750;-88
2022/10/19 00:06:14;;;;;;;3.83;2.40;;;24.40;99.90;;;;;;5016108;28;20375;-84
2022/10/19 00:08:42;;;;;;;4.10;2.50;;;24.60;99.90;;;;;;5015804;28;20831;-88
2022/10/19 00:11:09;;;;;;;3.40;2.40;;;24.60;99.50;;;;;;5048492;28;20720;-86
2022/10/19 00:13:37;;;;;;;3.75;2.47;;;24.50;98.50;;;;;;5017515;28;20897;-82
2022/10/19 00:16:09;;;;;;;3.75;2.75;;;24.40;98.40;;;;;;5017270;28;20832;-87
2022/10/19 00:18:36;;;;;;;3.85;2.50;;;24.30;99.90;;;;;;5017664;28;20379;-91
2022/10/19 00:21:08;;;;;;;4.63;2.60;;;24.70;99.20;;;;;;5016355;28;20390;-89
2022/10/19 00:23:35;;;;;;;4.30;2.50;;;24.70;97.10;;;;;;5015598;28;20375;-85
2022/10/19 00:26:02;;;;;;;3.75;2.20;;;24.70;99.20;;;;;;5018258;28;20893;-86
2022/10/19 00:28:29;;;;;;;3.05;2.00;;;25.10;99.70;;;;;;5014807;28;20403;-90
2022/10/19 00:31:01;;;;;;;2.75;1.70;;;25.40;97.10;;;;;;5015076;28;20454;-89
2022/10/19 00:33:27;;;;;;;2.40;1.63;;;25.60;95.80;;;;;;5014766;28;20410;-90
2022/10/19 00:35:54;;;;;;;2.65;1.67;;;25.80;93.80;;;;;;5014689;28;20383;-89
2022/10/19 00:38:22;;;;;;;1.83;1.50;;;25.90;92.60;;;;;;5014703;28;20375;-86
2022/10/19 00:40:49;;;;;;;2.05;1.40;;;25.90;92.20;;;;;;5015067;28;20410;-89
2022/10/19 00:43:19;;;;;;;2.33;1.60;;;26.20;91.20;;;;;;5016610;28;20419;-83
2022/10/19 00:45:46;;;;;;;2.38;1.52;;;26.50;90.10;;;;;;5015913;28;20375;-86
2022/10/19 00:48:18;;;;;;;2.95;1.58;;;26.80;87.20;;;;;;5023574;28;20438;-83
2022/10/19 00:50:47;;;;;;;1.75;1.45;;;26.90;84.70;;;;;;5031844;28;20379;-87
2022/10/19 00:53:14;;;;;;;2.22;1.20;;;27.00;82.90;;;;;;5031952;28;20371;-90
2022/10/19 00:55:42;;;;;;;1.80;1.40;;;27.00;78.30;;;;;;5029155;28;20386;-88
2022/10/19 00:58:09;;;;;;;3.55;1.58;;;27.20;76.00;;;;;;5017350;28;20391;-89
2022/10/19 01:00:36;;;;;;;2.92;1.60;;;27.10;74.20;;;;;;5016684;28;20380;-88
2022/10/19 01:03:04;;;;;;;2.08;1.67;;;27.00;77.50;;;;;;5015496;28;20375;-87
2022/10/19 01:05:33;;;;;;;2.20;1.60;;;27.10;78.10;;;;;;5015089;28;20418;-87
2022/10/19 01:08:01;;;;;;;2.15;1.60;;;27.70;76.70;;;;;;5014684;28;20415;-89
2022/10/19 01:10:45;;;;;;;2.30;1.70;;;28.10;74.80;;;;;;5015001;28;20382;-88
2022/10/19 01:13:58;;;;;;;2.90;1.63;;;28.20;74.30;;;;;;5047725;28;20424;-91
2022/10/19 01:16:53;;;;;;;2.67;1.63;;;28.20;71.70;;;;;;5016690;28;20375;-89
2022/10/19 01:20:04;;;;;;;3.42;1.60;;;27.80;72.70;;;;;;5014962;28;20383;-90
2022/10/19 01:22:43;;;;;;;4.20;1.60;;;28.20;70.20;;;;;;5043858;28;20401;-86
2022/10/19 01:25:38;;;;;;;2.78;1.50;;;28.80;67.80;;;;;;5044897;28;20398;-90
2022/10/19 01:28:26;;;;;;;3.47;1.55;;;29.10;67.20;;;;;;5032341;28;20409;-88
2022/10/19 01:30:57;;;;;;;2.67;1.70;;;29.40;65.60;;;;;;5031932;28;20384;-89
2022/10/19 01:34:08;;;;;;;2.83;1.70;;;29.40;65.00;;;;;;5015585;28;21482;-90
2022/10/19 01:36:35;;;;;;;2.23;1.60;;;29.20;65.10;;;;;;4992688;28;20428;-91
2022/10/19 01:39:32;;;;;;;2.22;1.63;;;29.00;65.40;;;;;;4992889;28;20416;-90
2022/10/19 01:42:13;;;;;;;5.47;1.50;;;28.80;65.40;;;;;;4993304;28;20536;-89
2022/10/19 01:44:52;;;;;;;2.72;1.63;;;28.60;65.60;;;;;;4992476;28;20389;-89
2022/10/19 01:47:25;;;;;;;3.70;1.83;;;28.90;67.60;;;;;;4994330;28;20427;-90
2022/10/19 01:50:02;;;;;;;3.60;1.90;;;29.10;66.40;;;;;;4992964;28;20864;-88
2022/10/19 01:52:30;;;;;;;2.78;1.90;;;29.10;66.90;;;;;;4992703;28;20453;-89
2022/10/19 01:55:02;;;;;;;3.10;1.70;;;29.20;67.00;;;;;;4991810;28;20409;-87
2022/10/19 01:57:51;;;;;;;3.25;1.90;;;29.30;67.40;;;;;;4992286;28;20373;-89
2022/10/19 02:00:21;;;;;;;3.70;1.63;;;29.20;65.00;;;;;;4991925;28;20385;-86
2022/10/19 02:02:53;;;;;;;3.22;1.70;;;29.00;66.30;;;;;;4993006;28;20373;-86
2022/10/19 02:05:23;;;;;;;2.78;1.60;;;28.90;67.70;;;;;;4991757;28;20380;-90
2022/10/19 02:07:57;;;;;;;2.97;1.60;;;28.90;67.60;;;;;;4991971;28;20491;-89
2022/10/19 02:10:25;;;;;;;2.67;1.55;;;29.40;63.10;;;;;;4992340;28;20947;-85
2022/10/19 02:12:54;;;;;;;1.90;1.50;;;29.70;62.60;;;;;;5009428;28;20382;-83
2022/10/19 02:15:25;;;;;;;2.67;1.60;;;30.20;58.90;;;;;;5020711;28;20390;-85
2022/10/19 02:17:58;;;;;;;3.58;1.80;;;29.90;60.00;;;;;;5019776;28;20391;-90
2022/10/19 02:20:28;;;;;;;3.33;1.88;;;29.70;62.40;;;;;;5050020;28;20391;-89
2022/10/19 02:22:55;;;;;;;3.30;1.90;;;30.00;61.40;;;;;;5020020;28;20462;-84
2022/10/19 02:25:24;;;;;;;3.50;1.90;;;30.00;61.10;;;;;;5017760;28;20907;-89
2022/10/19 02:27:51;;;;;;;2.97;1.80;;;29.40;60.60;;;;;;5019461;28;20407;-88
2022/10/19 02:30:21;;;;;;;4.68;1.83;;;29.10;60.60;;;;;;5018571;28;20806;-90
2022/10/19 02:32:51;;;;;;;3.17;2.00;;;29.20;62.00;;;;;;5083932;28;20378;-87
2022/10/19 02:35:18;;;;;;;3.85;1.88;;;29.50;61.50;;;;;;5017995;28;20367;-91
2022/10/19 02:37:47;;;;;;;2.53;1.70;;;29.40;62.60;;;;;;5018074;28;20885;-88
2022/10/19 02:40:14;;;;;;;3.72;1.63;;;29.70;63.30;;;;;;5018327;28;20867;-85
2022/10/19 02:42:50;;;;;;;3.00;1.60;;;30.40;59.50;;;;;;5019487;28;20383;-86
2022/10/19 02:45:30;;;;;;;2.50;1.40;;;31.00;57.80;;;;;;5019792;28;20498;-89
2022/10/19 02:48:10;;;;;;;2.30;1.47;;;31.70;56.90;;;;;;5021515;28;20395;-86
2022/10/19 02:50:37;;;;;;;1.42;1.20;;;31.70;53.50;;;;;;5018731;28;20371;-82
2022/10/19 02:53:04;;;;;;;1.70;1.40;;;31.20;54.20;;;;;;5019586;28;20473;-83
2022/10/19 02:55:31;;;;;;;2.40;1.40;;;31.30;54.30;;;;;;5019450;28;20375;-86
2022/10/19 02:57:58;;;;;;;1.88;1.40;;;31.60;54.70;;;;;;5017573;28;20376;-92
2022/10/19 03:00:25;;;;;;;2.35;1.60;;;31.40;53.80;;;;;;5018644;28;20414;-89
2022/10/19 03:02:52;;;;;;;2.93;1.30;;;31.20;55.70;;;;;;5048237;28;20379;-89
2022/10/19 03:05:19;;;;;;;1.75;1.50;;;31.70;55.60;;;;;;5017359;28;20433;-91
2022/10/19 03:07:46;;;;;;;3.28;1.60;;;31.30;54.30;;;;;;5015616;28;20403;-88
2022/10/19 03:10:13;;;;;;;2.27;1.57;;;31.30;54.40;;;;;;5016487;28;20382;-89
2022/10/19 03:12:40;;;;;;;2.28;1.45;;;31.40;52.90;;;;;;5016289;28;20375;-90
2022/10/19 03:15:08;;;;;;;2.70;1.50;;;31.30;54.90;;;;;;5016289;28;20441;-89
2022/10/19 03:17:36;;;;;;;1.73;1.30;;;31.40;52.70;;;;;;5017941;28;20386;-91
2022/10/19 03:20:03;;;;;;;3.00;1.50;;;31.30;52.30;;;;;;5019303;28;20731;-88
2022/10/19 03:22:30;;;;;;;2.78;1.50;;;31.70;51.80;;;;;;5020591;28;20387;-88
2022/10/19 03:25:01;;;;;;;3.45;1.85;;;32.40;51.00;;;;;;5020993;28;20484;-86
2022/10/19 03:27:28;;;;;;;2.90;1.80;;;32.50;50.70;;;;;;5018220;28;20403;-89
2022/10/19 03:29:55;;;;;;;6.13;2.90;;;32.40;51.60;;;;;;5017625;28;20376;-85
2022/10/19 03:32:22;;;;;;;8.30;3.30;;;32.20;57.00;;;;;;5016747;28;20386;-85
2022/10/19 03:34:49;;;;;;;5.13;3.13;;;31.50;60.70;;;;;;5023094;28;20382;-85
2022/10/19 03:37:16;;;;;;;6.10;3.17;;;30.80;63.20;;;;;;5017647;28;20382;-80
2022/10/19 03:39:43;;;;;;;5.57;3.22;;;29.90;65.10;;;;;;5016697;28;20474;-88
2022/10/19 03:42:10;;;;;;;8.80;3.47;;;29.50;68.00;;;;;;5016592;28;20791;-91
2022/10/19 03:44:37;;;;;;;7.35;3.30;;;29.20;68.70;;;;;;5016375;28;20381;-91
2022/10/19 03:47:04;;;;;;;7.60;3.20;;;29.00;69.50;;;;;;5017266;28;20895;-92
2022/10/19 03:49:31;;;;;;;6.75;3.10;;;29.10;70.40;;;;;;5016450;28;20410;-89
2022/10/19 03:51:58;;;;;;;7.72;3.22;;;28.90;69.50;;;;;;5016056;28;20375;-90
2022/10/19 03:54:25;;;;;;;5.85;3.00;;;28.90;70.90;;;;;;5016676;28;20469;-83
2022/10/19 03:56:53;;;;;;;6.28;3.08;;;28.90;70.30;;;;;;5016410;28;20390;-87
2022/10/19 03:59:21;;;;;;;5.25;3.03;;;28.70;72.20;;;;;;5016120;28;20411;-92
2022/10/19 04:01:48;;;;;;;8.80;3.20;;;28.70;71.20;;;;;;5047945;28;20721;-86
2022/10/19 04:04:17;;;;;;;4.82;2.80;;;28.50;71.00;;;;;;5015343;28;20721;-86
2022/10/19 04:06:47;;;;;;;6.55;2.70;;;28.30;72.10;;;;;;5015736;28;20393;-91
2022/10/19 04:09:17;;;;;;;6.15;2.63;;;28.10;73.00;;;;;;5015581;28;20863;-91
2022/10/19 04:11:44;;;;;;;6.43;2.33;;;27.80;74.40;;;;;;5014865;28;20728;-88
2022/10/19 04:14:17;;;;;;;7.57;2.20;;;27.60;75.30;;;;;;5016016;28;20462;-93
2022/10/19 04:16:43;;;;;;;6.18;1.90;;;27.20;76.70;;;;;;5015606;28;20433;-89
2022/10/19 04:19:15;;;;;;;5.30;2.00;;;26.90;76.50;;;;;;5015518;28;20458;-90
2022/10/19 04:21:43;;;;;;;7.13;2.03;;;26.60;77.70;;;;;;5015228;28;20380;-88
2022/10/19 04:24:13;;;;;;;5.68;1.98;;;26.30;80.10;;;;;;5014646;28;20889;-89
2022/10/19 04:26:51;;;;;;;7.45;2.10;;;26.20;80.20;;;;;;5015062;28;20379;-92
2022/10/19 04:29:20;;;;;;;6.82;1.80;;;26.00;81.90;;;;;;5015267;28;20403;-92
2022/10/19 04:31:49;;;;;;;5.88;1.80;;;25.70;82.40;;;;;;5015665;28;20852;-95
2022/10/19 04:34:16;;;;;;;8.53;1.93;;;25.30;84.70;;;;;;5015647;28;20391;-91
2022/10/19 04:36:44;;;;;;;5.00;1.70;;;25.00;86.40;;;;;;5015726;28;20367;-94
2022/10/19 04:39:11;;;;;;;4.88;1.60;;;24.80;89.00;;;;;;5014525;28;20384;-92
2022/10/19 04:41:38;;;;;;;4.32;1.50;;;24.70;87.60;;;;;;5016724;28;20376;-92
2022/10/19 04:44:06;;;;;;;5.85;1.70;;;24.50;89.00;;;;;;5030346;28;20383;-89
2022/10/19 04:46:36;;;;;;;7.15;1.70;;;24.40;90.50;;;;;;5035011;28;20712;-88
2022/10/19 04:49:05;;;;;;;6.15;1.92;;;24.30;91.10;;;;;;5036351;28;20390;-87
2022/10/19 04:51:32;;;;;;;6.38;1.73;;;24.10;92.10;;;;;;5026098;28;20457;-87
2022/10/19 04:53:59;;;;;;;4.35;1.52;;;23.90;92.90;;;;;;5022474;28;20886;-91
2022/10/19 04:56:26;;;;;;;6.78;1.75;;;23.80;93.50;;;;;;5021390;28;20540;-90
2022/10/19 04:58:58;;;;;;;4.60;1.70;;;23.60;93.90;;;;;;5053705;28;20851;-84
2022/10/19 05:01:26;;;;;;;4.20;1.70;;;23.40;95.00;;;;;;5022991;28;20461;-88
2022/10/19 05:03:58;;;;;;;3.83;1.55;;;23.30;96.10;;;;;;5016692;28;20391;-87
2022/10/19 05:06:25;;;;;;;4.57;1.60;;;23.20;96.70;;;;;;5016595;28;20379;-86
2022/10/19 05:08:52;;;;;;;4.07;1.70;;;23.10;97.40;;;;;;5015206;28;20497;-89
2022/10/19 05:11:20;;;;;;;4.95;1.83;;;23.00;98.00;;;;;;5015107;28;20418;-90
2022/10/19 05:13:47;;;;;;;8.30;1.80;;;23.00;98.70;;;;;;5014376;28;20388;-88
2022/10/19 05:16:17;;;;;;;4.90;1.80;;;22.80;99.20;;;;;;5014884;28;20425;-91
2022/10/19 05:18:50;;;;;;;4.00;1.80;;;22.80;99.90;;;;;;5013989;28;20377;-90
2022/10/19 05:21:19;;;;;;;4.82;1.70;;;22.80;99.90;;;;;;5014531;28;20433;-88
2022/10/19 05:23:46;;;;;;;5.60;1.67;;;22.70;99.90;;;;;;5015818;28;20410;-87
2022/10/19 05:26:19;;;;;;;5.18;1.80;;;22.80;99.90;;;;;;5013889;28;20403;-90
2022/10/19 05:29:03;;;;;;;4.53;1.90;;;22.70;99.90;;;;;;5015581;28;20894;-85
2022/10/19 05:31:33;;;;;;;6.28;2.03;;;22.70;99.90;;;;;;5014401;28;20399;-89
2022/10/19 05:34:02;;;;;;;5.82;2.00;;;22.70;99.90;;;;;;5014774;28;20380;-90
2022/10/19 05:36:35;;;;;;;7.72;2.30;;;22.60;99.90;;;;;;5047598;28;20736;-93
2022/10/19 05:39:20;;;;;;;6.10;2.30;;;22.60;99.90;;;;;;5014192;28;20367;-83
2022/10/19 05:41:47;;;;;;;7.88;2.30;;;22.50;99.90;;;;;;5014097;28;20371;-91
2022/10/19 05:44:17;;;;;;;6.28;2.30;;;22.50;99.90;;;;;;5014677;28;20469;-87
2022/10/19 05:46:44;;;;;;;6.82;2.53;;;22.50;99.90;;;;;;5015263;28;20376;-85
2022/10/19 05:49:13;;;;;;;6.88;2.75;;;22.50;99.90;;;;;;5021120;28;20398;-86
2022/10/19 05:51:40;;;;;;;5.25;2.58;;;22.50;99.90;;;;;;5020217;28;20403;-89
2022/10/19 05:54:07;;;;;;;6.47;2.55;;;22.40;99.90;;;;;;5018484;28;20418;-88
2022/10/19 05:56:35;;;;;;;7.45;2.70;;;22.40;99.90;;;;;;5031340;28;20401;-83
2022/10/19 05:59:05;;;;;;;6.15;2.58;;;22.40;99.90;;;;;;5026331;28;20443;-85
2022/10/19 06:01:33;;;;;;;6.77;2.40;;;22.40;99.90;;;;;;5030019;28;20390;-88
2022/10/19 06:04:02;;;;;;;5.63;2.70;;;22.50;99.90;;;;;;5022950;28;20459;-89
2022/10/19 06:06:32;;;;;;;4.60;2.55;;;22.50;99.90;;;;;;5014897;28;20382;-83
2022/10/19 06:08:59;;;;;;;5.50;2.40;;;22.50;99.90;;;;;;5013963;28;20745;-83
2022/10/19 06:11:29;;;;;;;5.13;2.38;;;22.50;99.90;;;;;;5013508;28;20421;-85
2022/10/19 06:13:58;;;;;;;6.00;2.20;;;22.40;99.90;;;;;;5013276;28;20410;-84
2022/10/19 06:16:26;;;;;;;5.95;2.40;;;22.40;99.90;;;;;;5013581;28;20371;-86
2022/10/19 06:18:54;;;;;;;5.72;2.50;;;22.50;99.90;;;;;;5045077;28;20898;-84
2022/10/19 06:21:23;;;;;;;8.27;2.87;;;22.40;99.90;;;;;;5013534;28;20371;-84
2022/10/19 06:23:51;;;;;;;5.03;2.25;;;22.40;99.90;;;;;;5013447;28;20724;-84
2022/10/19 06:26:19;;;;;;;5.25;2.38;;;22.50;99.90;;;;;;5014435;28;20395;-84
2022/10/19 06:28:47;;;;;;;5.60;2.10;;;22.50;99.90;;;;;;5013149;28;20399;-86
2022/10/19 06:31:15;;;;;;;4.63;1.98;;;22.40;99.90;;;;;;5014586;28;20379;-89
2022/10/19 06:33:44;;;;;;;4.43;1.92;;;22.50;99.90;;;;;;5014850;28;20396;-82
2022/10/19 06:36:20;;;;;;;5.70;2.00;;;22.40;99.90;;;;;;5013073;28;20382;-84
2022/10/19 06:38:48;;;;;;;4.50;1.70;;;22.40;99.90;;;;;;5014121;28;20557;-85
2022/10/19 06:41:15;;;;;;;5.85;1.88;;;22.50;99.90;;;;;;5042833;28;20379;-84
2022/10/19 06:43:43;;;;;;;4.82;1.90;;;22.50;99.90;;;;;;5022504;28;20458;-85
2022/10/19 06:46:19;;;;;;;5.70;1.77;;;22.60;99.90;;;;;;5023653;28;20411;-84
2022/10/19 06:49:03;;;;;;;5.25;1.80;;;22.60;99.90;;;;;;5024243;28;20413;-84
2022/10/19 06:51:34;;;;;;;7.03;1.92;;;22.60;99.90;;;;;;5022592;28;20376;-85
2022/10/19 06:54:01;;;;;;;4.30;1.70;;;22.60;99.90;;;;;;5016848;28;20375;-83
2022/10/19 06:56:28;;;;;;;5.22;1.80;;;22.60;99.90;;;;;;5014995;28;20387;-84
2022/10/19 06:58:55;;;;;;;6.72;1.80;;;22.60;99.90;;;;;;5015137;28;20434;-84
2022/10/19 07:01:23;;;;;;;5.43;1.90;;;22.50;99.90;;;;;;5015757;28;20471;-84
2022/10/19 07:03:54;;;;;;;7.07;1.90;;;22.40;99.90;;;;;;5014551;28;20387;-84
2022/10/19 07:06:21;;;;;;;6.45;1.92;;;22.30;99.90;;;;;;5014842;28;20484;-82
2022/10/19 07:08:48;;;;;;;6.30;1.95;;;22.20;99.90;;;;;;5014408;28;20473;-85
2022/10/19 07:11:18;;;;;;;7.40;2.08;;;22.20;99.90;;;;;;5015282;28;20383;-84
2022/10/19 07:13:45;;;;;;;8.13;2.00;;;22.10;99.90;;;;;;5014005;28;20395;-84
2022/10/19 07:16:17;;;;;;;7.50;2.10;;;22.00;99.90;;;;;;5014873;28;20747;-85
2022/10/19 07:18:44;;;;;;;5.82;2.20;;;21.90;99.90;;;;;;5015135;28;20372;-83
2022/10/19 07:21:13;;;;;;;9.40;2.50;;;21.90;99.90;;;;;;5014418;28;20859;-83
2022/10/19 07:23:43;;;;;;;8.25;2.40;;;21.80;99.90;;;;;;5014171;28;20382;-81
2022/10/19 07:26:20;;;;;;;7.22;2.28;;;21.70;99.90;;;;;;5013994;28;20399;-82
2022/10/19 07:28:48;;;;;;;9.98;2.83;;;21.60;99.90;;;;;;5014143;28;20493;-86
2022/10/19 07:31:19;;;;;;;11.63;2.72;;;21.50;99.90;;;;;;5014663;28;20382;-83
2022/10/19 07:33:47;;;;;;;9.77;2.83;;;21.40;99.90;;;;;;5016563;28;20855;-83
2022/10/19 07:36:14;;;;;;;11.20;2.63;;;21.40;99.90;;;;;;5016521;28;20462;-88
2022/10/19 07:38:44;;;;;;;10.75;2.55;;;21.30;99.90;;;;;;5026688;28;20371;-85
2022/10/19 07:41:14;;;;;;;8.02;2.38;;;21.10;99.90;;;;;;5027556;28;20387;-87
2022/10/19 07:43:43;;;;;;;11.35;2.58;;;21.10;99.90;;;;;;5023063;28;20890;-82
2022/10/19 07:46:22;;;;;;;10.85;2.60;;;21.00;99.90;;;;;;5017777;28;20383;-83
2022/10/19 07:48:50;;;;;;;10.05;2.50;;;20.90;99.90;;;;;;5017285;28;20399;-86
2022/10/19 07:51:18;;;;;;;8.77;2.50;;;20.80;99.90;;;;;;5018664;28;20407;-82
2022/10/19 07:53:45;;;;;;;10.10;2.70;;;20.70;99.90;;;;;;5018228;28;20386;-84
2022/10/19 07:56:19;;;;;;;10.07;2.72;;;20.60;99.90;;;;;;5017302;28;20367;-85
2022/10/19 07:58:46;;;;;;;10.25;2.80;;;20.60;99.90;;;;;;5018672;28;20379;-86
2022/10/19 08:01:18;;;;;;;9.40;2.50;;;20.50;99.90;;;;;;5052070;28;20387;-82
2022/10/19 08:03:47;;;;;;;10.70;2.63;;;20.40;99.90;;;;;;5023253;28;20391;-85
2022/10/19 08:06:17;;;;;;;10.50;2.83;;;20.30;99.90;;;;;;5085230;28;20909;-87
2022/10/19 08:08:47;;;;;;;10.30;2.60;;;20.20;99.90;;;;;;5023330;28;20466;-87
2022/10/19 08:11:18;;;;;;;11.43;2.80;;;20.10;99.90;;;;;;5023832;28;20425;-87
2022/10/19 08:13:45;;;;;;;8.90;2.55;;;20.00;99.90;;;;;;5024334;28;20367;-88
2022/10/19 08:16:26;;;;;;;11.27;2.83;;;19.90;99.90;;;;;;5032937;28;20364;-86
2022/10/19 08:18:58;;;;;;;10.20;2.85;;;19.80;99.90;;;;;;5032924;28;20375;-83
2022/10/19 08:21:30;;;;;;;11.95;2.60;;;19.80;99.90;;;;;;5029714;28;20375;-84
2022/10/19 08:24:00;;;;;;;13.38;2.83;;;19.70;99.90;;;;;;5027343;28;20403;-86
2022/10/19 08:26:36;;;;;;;9.50;2.70;;;19.60;99.90;;;;;;5026930;28;20422;-87
2022/10/19 08:29:12;;;;;;;12.88;2.92;;;19.60;99.90;;;;;;5025282;28;20910;-85
2022/10/19 08:31:43;;;;;;;13.00;3.10;;;19.60;99.90;;;;;;5023878;28;20413;-87
2022/10/19 08:34:12;;;;;;;11.98;3.00;;;19.50;99.90;;;;;;5052865;28;20395;-87
2022/10/19 08:36:40;;;;;;;11.52;2.90;;;19.40;99.90;;;;;;5023319;28;20384;-86
2022/10/19 08:39:12;;;;;;;10.95;2.75;;;19.40;99.90;;;;;;5023923;28;20387;-85
2022/10/19 08:41:59;;;;;;;9.30;2.90;;;19.40;99.90;;;;;;5022767;28;20382;-87
2022/10/19 08:45:20;;;;;;;10.07;2.70;;;19.30;99.90;;;;;;5023696;28;20449;-84
2022/10/19 08:48:09;;;;;;;13.27;2.97;;;19.30;99.90;;;;;;5042402;28;20405;-86
2022/10/19 08:50:43;;;;;;;10.55;3.00;;;19.20;99.90;;;;;;5045231;28;20456;-86
2022/10/19 08:53:43;;;;;;;11.60;3.05;;;19.20;99.90;;;;;;5047793;28;20389;-90
2022/10/19 08:56:31;;;;;;;10.48;3.20;;;19.10;99.90;;;;;;5010199;28;20428;-90
2022/10/19 08:59:21;;;;;;;13.35;3.10;;;19.10;99.90;;;;;;4976401;28;20385;-93
2022/10/19 09:01:58;;;;;;;13.30;3.22;;;19.10;99.90;;;;;;5007737;28;20373;-92
2022/10/19 09:04:42;;;;;;;12.55;3.33;;;19.00;99.90;;;;;;5007219;28;20387;-88
2022/10/19 09:07:47;;;;;;;12.43;3.40;;;19.00;99.90;;;;;;5009350;28;20369;-85
2022/10/19 09:10:28;;;;;;;13.23;3.10;;;19.00;99.90;;;;;;5008703;28;20381;-83
2022/10/19 09:13:28;;;;;;;14.82;3.78;;;19.00;99.90;;;;;;5009311;28;20396;-83
2022/10/19 09:15:55;;;;;;;12.80;3.13;;;19.00;99.90;;;;;;4993888;28;20363;-81
2022/10/19 09:18:27;;;;;;;14.77;3.20;;;19.00;99.90;;;;;;4994161;28;20390;-83
2022/10/19 09:21:33;;;;;;;10.57;2.87;;;19.00;99.90;;;;;;4985885;28;20377;-81
2022/10/19 09:24:16;;;;;;;13.68;3.50;;;19.10;99.90;;;;;;4970840;29;20394;-84
2022/10/19 09:26:54;;;;;;;12.77;3.10;;;19.20;99.90;;;;;;4974633;28;20419;-86
2022/10/19 09:29:34;;;;;;;15.80;3.20;;;19.30;99.90;;;;;;4970291;29;20391;-83
2022/10/19 09:32:12;;;;;;;13.60;3.50;;;19.30;99.90;;;;;;4975843;28;20383;-84
2022/10/19 09:34:45;;;;;;;15.30;3.10;;;19.30;99.90;;;;;;4996264;28;20394;-90
2022/10/19 09:37:13;;;;;;;10.52;2.90;;;19.40;99.90;;;;;;4993169;28;20453;-85
2022/10/19 09:39:40;;;;;;;13.30;2.90;;;19.40;99.90;;;;;;5011744;28;20449;-87
2022/10/19 09:42:31;;;;;;;14.88;3.20;;;19.50;99.90;;;;;;4995010;28;20474;-95
2022/10/19 09:45:36;;;;;;;13.07;2.83;;;19.50;99.90;;;;;;4994622;28;20383;-90
2022/10/19 09:48:19;;;;;;;11.13;3.10;;;19.50;99.90;;;;;;4979362;28;20426;-84
2022/10/19 09:50:59;;;;;;;11.55;3.15;;;19.50;99.90;;;;;;4994990;28;20858;-90
2022/10/19 09:53:29;;;;;;;12.43;3.00;;;19.60;99.90;;;;;;5034072;28;20379;-88
2022/10/19 09:56:16;;;;;;;14.77;3.78;;;19.60;99.90;;;;;;5024320;28;20418;-87
2022/10/19 09:58:51;;;;;;;13.75;3.80;;;19.60;99.90;;;;;;5022015;28;20455;-91
2022/10/19 10:01:42;;;;;;;12.73;3.60;;;19.60;99.90;;;;;;5021722;28;20430;-89
2022/10/19 10:04:17;;;;;;;11.65;3.33;;;19.60;99.90;;;;;;5030994;28;20386;-83
2022/10/19 10:06:47;;;;;;;11.00;3.50;;;19.50;99.90;;;;;;5024114;28;20384;-89
2022/10/19 10:09:25;;;;;;;12.50;3.60;;;19.50;99.90;;;;;;5022480;28;20395;-82
2022/10/19 10:11:55;;;;;;;13.23;3.70;;;19.50;99.90;;;;;;5022838;28;20375;-93
2022/10/19 10:14:39;;;;;;;14.20;3.70;;;19.50;99.90;;;;;;5021346;28;20383;-90
2022/10/19 10:17:18;;;;;;;15.65;3.35;;;19.50;99.90;;;;;;5022829;28;20399;-88
2022/10/19 10:20:04;;;;;;;12.40;3.30;;;19.40;99.90;;;;;;5040360;28;20387;-89
2022/10/19 10:22:36;;;;;;;12.18;3.20;;;19.40;99.90;;;;;;5056730;28;20387;-90
2022/10/19 10:25:17;;;;;;;14.85;3.40;;;19.30;99.90;;;;;;5024421;28;20405;-89
2022/10/19 10:28:24;;;;;;;12.73;3.10;;;19.30;99.90;;;;;;5024129;28;20406;-91
2022/10/19 10:31:08;;;;;;;12.85;3.17;;;19.20;99.90;;;;;;5017755;28;20712;-88
2022/10/19 10:33:38;;;;;;;11.18;2.97;;;19.20;99.90;;;;;;5024865;28;20386;-88
2022/10/19 10:36:08;;;;;;;9.73;2.90;;;19.20;99.90;;;;;;5019506;28;20398;-82
2022/10/19 10:38:47;;;;;;;15.82;3.10;;;19.30;99.90;;;;;;5019553;28;20374;-86
2022/10/19 10:41:22;;;;;;;15.10;3.28;;;19.30;99.90;;;;;;5019486;28;20454;-85
2022/10/19 10:43:52;;;;;;;12.45;3.00;;;19.20;99.90;;;;;;5020331;28;20379;-87
2022/10/19 10:46:37;;;;;;;11.83;2.70;;;19.20;99.90;;;;;;5024435;28;20401;-90
2022/10/19 10:49:15;;;;;;;11.32;2.78;;;19.30;99.90;;;;;;5022768;28;20430;-89
2022/10/19 10:51:50;;;;;;;16.13;3.13;;;19.30;99.90;;;;;;5024780;28;20377;-93
2022/10/19 10:54:27;;;;;;;12.32;2.90;;;19.30;99.90;;;;;;5027301;28;20371;-91
2022/10/19 10:57:15;;;;;;;14.43;3.25;;;19.30;99.90;;;;;;5056916;28;20379;-86
2022/10/19 11:00:14;;;;;;;13.25;3.30;;;19.30;99.90;;;;;;5026975;28;20384;-88
2022/10/19 11:03:16;;;;;;;18.02;5.38;;;19.30;99.90;;;;;;5037728;28;20383;-86
2022/10/19 11:05:58;;;;;;;18.52;4.53;;;19.30;99.90;;;;;;5053364;28;20415;-84
2022/10/19 11:08:41;;;;;;;18.88;3.50;;;19.40;99.90;;;;;;5056207;28;20393;-81
2022/10/19 11:11:29;;;;;;;15.43;3.20;;;19.30;99.90;;;;;;5055750;28;20377;-83
2022/10/19 11:14:14;;;;;;;16.88;3.50;;;19.30;99.90;;;;;;5055498;28;20413;-83
2022/10/19 11:16:45;;;;;;;15.38;3.20;;;19.30;99.90;;;;;;5051682;28;20385;-85
2022/10/19 11:19:35;;;;;;;19.25;3.75;;;19.20;99.90;;;;;;5045639;28;20909;-90
2022/10/19 11:22:27;;;;;;;17.67;3.40;;;19.20;99.90;;;;;;5045148;28;20411;-94
2022/10/19 11:25:22;;;;;;;16.17;3.25;;;19.20;99.90;;;;;;5044001;28;20400;-92
2022/10/19 11:28:10;;;;;;;17.63;3.42;;;19.20;99.90;;;;;;5042492;28;20405;-89
2022/10/19 11:30:59;;;;;;;18.33;3.80;;;19.10;99.90;;;;;;5041651;28;20387;-90
2022/10/19 11:33:34;;;;;;;22.77;4.00;;;19.00;99.90;;;;;;5025562;28;20466;-96
2022/10/19 11:36:38;;;;;;;17.08;3.83;;;18.90;99.90;;;;;;5040177;28;20373;-95
2022/10/19 11:39:33;;;;;;;15.38;3.47;;;18.80;99.90;;;;;;5041213;28;20389;-88
2022/10/19 11:42:08;;;;;;;17.95;3.40;;;18.80;99.90;;;;;;5025669;28;20383;-91
2022/10/19 11:45:02;;;;;;;15.38;3.33;;;18.70;99.90;;;;;;5019337;28;20383;-84
2022/10/19 11:47:49;;;;;;;17.23;3.90;;;18.60;99.90;;;;;;5039508;28;20390;-85
2022/10/19 11:50:47;;;;;;;16.92;3.97;;;18.60;99.90;;;;;;5039256;28;20385;-88
2022/10/19 11:53:23;;;;;;;17.73;3.50;;;18.60;99.90;;;;;;5022343;28;20382;-89
2022/10/19 11:56:12;;;;;;;13.68;3.30;;;18.50;99.90;;;;;;5039207;28;20385;-84
2022/10/19 11:58:48;;;;;;;14.35;3.22;;;18.50;99.90;;;;;;5038050;28;20374;-88
2022/10/19 12:01:30;;;;;;;16.80;3.72;;;18.40;99.90;;;;;;5037332;28;20384;-88
2022/10/19 12:04:07;;;;;;;18.20;3.78;;;18.40;99.90;;;;;;5035061;28;20378;-86
2022/10/19 12:07:10;;;;;;;14.65;3.50;;;18.30;99.90;;;;;;5036438;28;20444;-86
2022/10/19 12:09:49;;;;;;;18.63;3.90;;;18.30;99.90;;;;;;5035586;28;20386;-82
2022/10/19 12:12:25;;;;;;;19.63;4.23;;;18.20;99.90;;;;;;5036899;28;20374;-89
2022/10/19 12:14:59;;;;;;;20.27;4.10;;;18.20;99.90;;;;;;5036854;28;20396;-86
2022/10/19 12:17:33;;;;;;;18.08;4.10;;;18.10;99.90;;;;;;5035972;28;20511;-88
2022/10/19 12:20:15;;;;;;;16.43;4.00;;;18.10;99.90;;;;;;5037132;28;20485;-86
2022/10/19 12:22:43;;;;;;;15.13;3.72;;;18.10;99.90;;;;;;5039187;28;20985;-88
2022/10/19 12:25:14;;;;;;;16.42;4.03;;;18.00;99.90;;;;;;5022650;28;20879;-87
2022/10/19 12:27:46;;;;;;;17.30;4.10;;;17.90;99.90;;;;;;5017957;28;20391;-91
2022/10/19 12:30:16;;;;;;;17.27;3.80;;;18.00;99.90;;;;;;5016984;28;20430;-81
2022/10/19 12:33:08;;;;;;;15.82;3.30;;;18.00;99.90;;;;;;5016773;28;20428;-87
2022/10/19 12:35:40;;;;;;;15.63;3.50;;;18.10;99.90;;;;;;5017523;28;20859;-90
2022/10/19 12:38:26;;;;;;;13.52;3.40;;;18.10;99.90;;;;;;5017005;28;20367;-87
2022/10/19 12:41:00;;;;;;;18.75;4.05;;;18.20;99.90;;;;;;5016534;28;20368;-85
2022/10/19 12:43:33;;;;;;;14.93;3.60;;;18.20;99.90;;;;;;5017259;28;20379;-82
2022/10/19 12:46:14;;;;;;;13.70;3.53;;;18.30;99.90;;;;;;5017061;28;20895;-84
2022/10/19 12:48:41;;;;;;;16.08;3.63;;;18.30;99.90;;;;;;5016988;28;20410;-83
2022/10/19 12:51:14;;;;;;;14.18;3.58;;;18.30;99.90;;;;;;5015845;28;20384;-84
2022/10/19 12:53:49;;;;;;;16.60;3.70;;;18.30;99.90;;;;;;5016778;28;20406;-87
2022/10/19 12:56:21;;;;;;;20.05;4.13;;;18.30;99.90;;;;;;5016940;28;20376;-82
2022/10/19 12:58:56;;;;;;;19.40;4.00;;;18.30;99.90;;;;;;5018125;28;20368;-91
2022/10/19 13:01:35;;;;;;;26.10;4.38;;;18.20;99.90;;;;;;5018139;28;20398;-88
2022/10/19 13:04:20;;;;;;;24.50;4.63;;;18.20;99.90;;;;;;5017769;28;20384;-83
2022/10/19 13:06:57;;;;;;;15.63;4.13;;;18.20;99.90;;;;;;5016475;28;20374;-82
2022/10/19 13:09:35;;;;;;;24.38;4.53;;;18.20;99.90;;;;;;5016287;28;20395;-85
2022/10/19 13:12:15;;;;;;;15.82;4.43;;;18.20;99.90;;;;;;5016685;28;20371;-82
2022/10/19 13:14:59;;;;;;;19.88;4.38;;;18.10;99.90;;;;;;5017698;28;20387;-82
2022/10/19 13:17:36;;;;;;;17.60;3.65;;;18.10;99.90;;;;;;5047629;28;20384;-90
2022/10/19 13:20:15;;;;;;;16.80;4.40;;;18.10;99.90;;;;;;5015963;28;20388;-91